Savannah Hilton Head International Airport
KSAV : now visible

Airfield :











YOU CAN JOIN US ON...

 
LOGIN :

Register | Disclaimer

   EN    FR    IT 

 









Legend :    VFR   Marginal VFR   IFR   Intensive IFR   Very Intensive IFR
Visi :
Ceiling :
>= 8 km
>= 3000ft
5 to 8 km
1000 to 3000 ft
1500m to 5 km
500 to 1000 ft
800 to 1500m
200 to 500 ft
< 800m
< 200 ft
Symbols :   Thunderstorms  Fog  Heavy snow  Heavy precipitations  Wind > 20 kt






- Airport Elevation : 50 ft
- IATA code : SAV


KSAV - Savannah Hilton Head International

CURRENT METAR :
  • 081653Z 29014KT 10SM OVC021 26/20 A2988 RMK AO2 SLP117 T02610200

EXPIRED METARs :
  • 081553Z 28009KT 10SM OVC018 25/19 A2990 RMK AO2 SLP125 T02500194
  • 081453Z 29011KT 10SM OVC017 23/19 A2990 RMK AO2 SLP125 T02330189 50003

TAF KSAV
Valid from the 08 at 16:00 until the 09 at 12:00 UTC


081601Z 0816/0912 26008KT P6SM SCT020 BKN070
TEMPO 0816/0818 BKN018
FM081800 26012G17KT P6SM SCT020 BKN035
FM090100 24007KT P6SM SCT015 BKN120



MET'MAP, your aeronautical weather chart ! - Copyright ORBIFLY December 2007 - Disclaimer

ORBIFLY MET'MAP TEAM :

Programming & Development : Alexandra Zaïnal
Concept & original design : Baudouin d'Aumeries
Assistance for programming : Marc-Olivier Méhu
Technical & hardware support : Manuel Goepfert

Contact : metmap@orbifly.com




SOURCES & CREDITS :

   NOAA       Earth
Advisory